sensor_id;sensor_type;location;lat;lon;timestamp;P1;durP1;ratioP1;P2;durP2;ratioP2
47365;SDS011;33105;47.964;7.982;2023-07-24T00:02:05;13.02;;;8.30;;
47365;SDS011;33105;47.964;7.982;2023-07-24T00:05:07;12.95;;;7.82;;
47365;SDS011;33105;47.964;7.982;2023-07-24T00:08:08;10.90;;;7.72;;
47365;SDS011;33105;47.964;7.982;2023-07-24T00:11:10;11.55;;;7.93;;
47365;SDS011;33105;47.964;7.982;2023-07-24T00:14:11;12.00;;;7.97;;
47365;SDS011;33105;47.964;7.982;2023-07-24T00:17:12;12.68;;;7.95;;
47365;SDS011;33105;47.964;7.982;2023-07-24T00:20:14;13.55;;;7.57;;
47365;SDS011;33105;47.964;7.982;2023-07-24T00:23:15;11.68;;;7.63;;
47365;SDS011;33105;47.964;7.982;2023-07-24T00:26:17;11.20;;;7.82;;
47365;SDS011;33105;47.964;7.982;2023-07-24T00:29:18;10.60;;;7.30;;
47365;SDS011;33105;47.964;7.982;2023-07-24T00:32:19;12.65;;;7.75;;
47365;SDS011;33105;47.964;7.982;2023-07-24T00:35:20;10.45;;;7.53;;
47365;SDS011;33105;47.964;7.982;2023-07-24T00:38:22;12.95;;;8.40;;
47365;SDS011;33105;47.964;7.982;2023-07-24T00:41:24;10.02;;;7.72;;
47365;SDS011;33105;47.964;7.982;2023-07-24T00:44:25;11.73;;;7.90;;
47365;SDS011;33105;47.964;7.982;2023-07-24T00:47:29;13.02;;;8.20;;
47365;SDS011;33105;47.964;7.982;2023-07-24T00:50:40;11.30;;;7.75;;
47365;SDS011;33105;47.964;7.982;2023-07-24T00:53:47;12.43;;;8.38;;
47365;SDS011;33105;47.964;7.982;2023-07-24T00:56:49;12.30;;;8.40;;
47365;SDS011;33105;47.964;7.982;2023-07-24T00:59:55;13.95;;;8.65;;
47365;SDS011;33105;47.964;7.982;2023-07-24T01:03:00;15.23;;;8.80;;
47365;SDS011;33105;47.964;7.982;2023-07-24T01:06:04;10.05;;;7.82;;
47365;SDS011;33105;47.964;7.982;2023-07-24T01:09:05;15.70;;;8.82;;
47365;SDS011;33105;47.964;7.982;2023-07-24T01:12:16;10.15;;;7.70;;
47365;SDS011;33105;47.964;7.982;2023-07-24T01:15:34;12.35;;;8.18;;
47365;SDS011;33105;47.964;7.982;2023-07-24T01:18:50;12.70;;;8.20;;
47365;SDS011;33105;47.964;7.982;2023-07-24T01:22:08;14.45;;;8.80;;
47365;SDS011;33105;47.964;7.982;2023-07-24T01:28:47;13.75;;;9.07;;
47365;SDS011;33105;47.964;7.982;2023-07-24T01:31:49;13.35;;;8.27;;
47365;SDS011;33105;47.964;7.982;2023-07-24T01:35:03;14.23;;;8.60;;
47365;SDS011;33105;47.964;7.982;2023-07-24T01:38:08;12.48;;;8.45;;
47365;SDS011;33105;47.964;7.982;2023-07-24T01:41:12;12.77;;;8.45;;
47365;SDS011;33105;47.964;7.982;2023-07-24T01:44:14;12.20;;;8.43;;
47365;SDS011;33105;47.964;7.982;2023-07-24T01:47:17;12.82;;;7.75;;
47365;SDS011;33105;47.964;7.982;2023-07-24T01:50:19;12.18;;;8.30;;
47365;SDS011;33105;47.964;7.982;2023-07-24T01:53:23;12.70;;;8.60;;
47365;SDS011;33105;47.964;7.982;2023-07-24T01:56:28;11.05;;;7.82;;
47365;SDS011;33105;47.964;7.982;2023-07-24T01:59:30;13.70;;;8.45;;
47365;SDS011;33105;47.964;7.982;2023-07-24T02:02:32;12.90;;;8.70;;
47365;SDS011;33105;47.964;7.982;2023-07-24T02:05:34;12.77;;;8.43;;
47365;SDS011;33105;47.964;7.982;2023-07-24T02:08:41;12.48;;;8.18;;
47365;SDS011;33105;47.964;7.982;2023-07-24T02:12:09;13.57;;;8.90;;
47365;SDS011;33105;47.964;7.982;2023-07-24T02:15:19;13.07;;;8.32;;
47365;SDS011;33105;47.964;7.982;2023-07-24T02:18:22;14.55;;;8.50;;
47365;SDS011;33105;47.964;7.982;2023-07-24T02:21:39;12.15;;;8.73;;
47365;SDS011;33105;47.964;7.982;2023-07-24T02:24:44;13.38;;;8.73;;
47365;SDS011;33105;47.964;7.982;2023-07-24T02:27:47;13.25;;;8.68;;
47365;SDS011;33105;47.964;7.982;2023-07-24T02:30:58;11.02;;;8.13;;
47365;SDS011;33105;47.964;7.982;2023-07-24T02:37:57;15.35;;;9.25;;
47365;SDS011;33105;47.964;7.982;2023-07-24T02:41:07;13.00;;;8.35;;
47365;SDS011;33105;47.964;7.982;2023-07-24T02:44:12;15.45;;;8.57;;
47365;SDS011;33105;47.964;7.982;2023-07-24T02:47:28;17.42;;;8.88;;
47365;SDS011;33105;47.964;7.982;2023-07-24T02:50:37;14.88;;;8.60;;
47365;SDS011;33105;47.964;7.982;2023-07-24T02:53:50;13.00;;;8.07;;
47365;SDS011;33105;47.964;7.982;2023-07-24T03:01:01;13.50;;;8.68;;
47365;SDS011;33105;47.964;7.982;2023-07-24T03:04:07;12.10;;;8.15;;
47365;SDS011;33105;47.964;7.982;2023-07-24T03:07:40;14.02;;;9.38;;
47365;SDS011;33105;47.964;7.982;2023-07-24T03:10:53;11.45;;;8.10;;
47365;SDS011;33105;47.964;7.982;2023-07-24T03:13:55;13.40;;;8.32;;
47365;SDS011;33105;47.964;7.982;2023-07-24T03:16:59;12.75;;;8.63;;
47365;SDS011;33105;47.964;7.982;2023-07-24T03:20:11;13.82;;;8.23;;
47365;SDS011;33105;47.964;7.982;2023-07-24T03:23:32;11.52;;;8.00;;
47365;SDS011;33105;47.964;7.982;2023-07-24T03:26:45;12.43;;;7.97;;
47365;SDS011;33105;47.964;7.982;2023-07-24T03:29:48;17.02;;;8.35;;
47365;SDS011;33105;47.964;7.982;2023-07-24T03:32:56;19.75;;;8.65;;
47365;SDS011;33105;47.964;7.982;2023-07-24T03:36:06;15.13;;;9.20;;
47365;SDS011;33105;47.964;7.982;2023-07-24T03:39:09;16.20;;;8.50;;
47365;SDS011;33105;47.964;7.982;2023-07-24T03:42:23;12.73;;;8.30;;
47365;SDS011;33105;47.964;7.982;2023-07-24T03:45:44;13.50;;;8.18;;
47365;SDS011;33105;47.964;7.982;2023-07-24T03:49:14;15.07;;;8.73;;
47365;SDS011;33105;47.964;7.982;2023-07-24T03:52:18;16.20;;;7.35;;
47365;SDS011;33105;47.964;7.982;2023-07-24T03:55:20;14.45;;;8.45;;
47365;SDS011;33105;47.964;7.982;2023-07-24T03:58:23;13.15;;;8.05;;
47365;SDS011;33105;47.964;7.982;2023-07-24T04:01:31;14.43;;;8.52;;
47365;SDS011;33105;47.964;7.982;2023-07-24T04:04:33;14.63;;;8.70;;
47365;SDS011;33105;47.964;7.982;2023-07-24T04:07:34;12.85;;;7.95;;
47365;SDS011;33105;47.964;7.982;2023-07-24T04:10:35;13.23;;;8.95;;
47365;SDS011;33105;47.964;7.982;2023-07-24T04:13:37;11.63;;;8.20;;
47365;SDS011;33105;47.964;7.982;2023-07-24T04:16:41;12.95;;;8.88;;
47365;SDS011;33105;47.964;7.982;2023-07-24T04:19:42;13.98;;;9.20;;
47365;SDS011;33105;47.964;7.982;2023-07-24T04:22:44;13.52;;;9.13;;
47365;SDS011;33105;47.964;7.982;2023-07-24T04:25:45;13.20;;;8.60;;
47365;SDS011;33105;47.964;7.982;2023-07-24T04:28:47;14.63;;;8.85;;
47365;SDS011;33105;47.964;7.982;2023-07-24T04:31:52;12.93;;;8.65;;
47365;SDS011;33105;47.964;7.982;2023-07-24T04:34:53;14.18;;;8.95;;
47365;SDS011;33105;47.964;7.982;2023-07-24T04:37:55;14.07;;;9.00;;
47365;SDS011;33105;47.964;7.982;2023-07-24T04:41:02;14.30;;;8.88;;
47365;SDS011;33105;47.964;7.982;2023-07-24T04:44:03;13.27;;;8.63;;
47365;SDS011;33105;47.964;7.982;2023-07-24T04:47:14;12.75;;;8.68;;
47365;SDS011;33105;47.964;7.982;2023-07-24T04:50:15;14.43;;;8.55;;
47365;SDS011;33105;47.964;7.982;2023-07-24T04:53:25;15.43;;;9.98;;
47365;SDS011;33105;47.964;7.982;2023-07-24T04:56:27;17.95;;;9.50;;
47365;SDS011;33105;47.964;7.982;2023-07-24T04:59:28;18.85;;;10.60;;
47365;SDS011;33105;47.964;7.982;2023-07-24T05:02:58;16.25;;;8.40;;
47365;SDS011;33105;47.964;7.982;2023-07-24T05:06:16;16.08;;;7.63;;
47365;SDS011;33105;47.964;7.982;2023-07-24T05:09:55;12.95;;;7.70;;
47365;SDS011;33105;47.964;7.982;2023-07-24T05:17:00;13.35;;;8.13;;
47365;SDS011;33105;47.964;7.982;2023-07-24T05:20:01;10.25;;;6.53;;
47365;SDS011;33105;47.964;7.982;2023-07-24T05:23:03;9.45;;;6.25;;
47365;SDS011;33105;47.964;7.982;2023-07-24T05:26:04;10.10;;;6.05;;
47365;SDS011;33105;47.964;7.982;2023-07-24T05:29:06;10.45;;;6.18;;
47365;SDS011;33105;47.964;7.982;2023-07-24T05:32:47;9.90;;;5.63;;
47365;SDS011;33105;47.964;7.982;2023-07-24T05:35:49;9.00;;;5.80;;
47365;SDS011;33105;47.964;7.982;2023-07-24T05:38:51;12.38;;;5.80;;
47365;SDS011;33105;47.964;7.982;2023-07-24T05:42:58;9.90;;;6.43;;
47365;SDS011;33105;47.964;7.982;2023-07-24T05:46:20;10.93;;;6.75;;
47365;SDS011;33105;47.964;7.982;2023-07-24T05:49:22;10.05;;;6.45;;
47365;SDS011;33105;47.964;7.982;2023-07-24T05:52:26;14.55;;;6.95;;
47365;SDS011;33105;47.964;7.982;2023-07-24T05:55:29;11.68;;;6.75;;
47365;SDS011;33105;47.964;7.982;2023-07-24T05:58:31;11.38;;;6.53;;
47365;SDS011;33105;47.964;7.982;2023-07-24T06:01:32;10.80;;;6.80;;
47365;SDS011;33105;47.964;7.982;2023-07-24T06:04:33;12.95;;;7.00;;
47365;SDS011;33105;47.964;7.982;2023-07-24T06:07:35;10.90;;;7.30;;
47365;SDS011;33105;47.964;7.982;2023-07-24T06:10:36;10.73;;;6.13;;
47365;SDS011;33105;47.964;7.982;2023-07-24T06:13:37;9.82;;;5.70;;
47365;SDS011;33105;47.964;7.982;2023-07-24T06:16:39;7.93;;;5.70;;
47365;SDS011;33105;47.964;7.982;2023-07-24T06:19:40;11.85;;;5.40;;
47365;SDS011;33105;47.964;7.982;2023-07-24T06:22:41;7.72;;;4.90;;
47365;SDS011;33105;47.964;7.982;2023-07-24T06:25:43;9.75;;;4.88;;
47365;SDS011;33105;47.964;7.982;2023-07-24T06:28:44;6.22;;;4.35;;
47365;SDS011;33105;47.964;7.982;2023-07-24T06:31:45;5.88;;;4.28;;
47365;SDS011;33105;47.964;7.982;2023-07-24T06:34:46;8.25;;;4.45;;
47365;SDS011;33105;47.964;7.982;2023-07-24T06:37:47;9.85;;;3.88;;
47365;SDS011;33105;47.964;7.982;2023-07-24T06:40:49;5.38;;;4.25;;
47365;SDS011;33105;47.964;7.982;2023-07-24T06:43:51;8.00;;;4.35;;
47365;SDS011;33105;47.964;7.982;2023-07-24T06:46:52;6.65;;;4.28;;
47365;SDS011;33105;47.964;7.982;2023-07-24T06:49:53;7.80;;;4.50;;
47365;SDS011;33105;47.964;7.982;2023-07-24T06:52:55;6.97;;;4.28;;
47365;SDS011;33105;47.964;7.982;2023-07-24T06:55:56;6.03;;;4.30;;
47365;SDS011;33105;47.964;7.982;2023-07-24T06:58:58;5.97;;;4.20;;
47365;SDS011;33105;47.964;7.982;2023-07-24T07:01:59;7.13;;;4.45;;
47365;SDS011;33105;47.964;7.982;2023-07-24T07:05:00;5.47;;;4.10;;
47365;SDS011;33105;47.964;7.982;2023-07-24T07:08:02;5.68;;;4.20;;
47365;SDS011;33105;47.964;7.982;2023-07-24T07:11:03;9.52;;;4.47;;
47365;SDS011;33105;47.964;7.982;2023-07-24T07:14:04;9.57;;;4.65;;
47365;SDS011;33105;47.964;7.982;2023-07-24T07:17:06;5.25;;;4.10;;
47365;SDS011;33105;47.964;7.982;2023-07-24T07:20:07;6.05;;;3.83;;
47365;SDS011;33105;47.964;7.982;2023-07-24T07:23:08;8.60;;;4.15;;
47365;SDS011;33105;47.964;7.982;2023-07-24T07:26:10;5.38;;;4.30;;
47365;SDS011;33105;47.964;7.982;2023-07-24T07:29:11;6.43;;;4.65;;
47365;SDS011;33105;47.964;7.982;2023-07-24T07:32:13;6.28;;;4.10;;
47365;SDS011;33105;47.964;7.982;2023-07-24T07:35:14;8.13;;;4.65;;
47365;SDS011;33105;47.964;7.982;2023-07-24T07:38:15;7.00;;;4.32;;
47365;SDS011;33105;47.964;7.982;2023-07-24T07:41:16;6.25;;;4.22;;
47365;SDS011;33105;47.964;7.982;2023-07-24T07:44:18;7.22;;;4.30;;
47365;SDS011;33105;47.964;7.982;2023-07-24T07:47:19;9.15;;;4.80;;
47365;SDS011;33105;47.964;7.982;2023-07-24T07:50:20;10.98;;;5.78;;
47365;SDS011;33105;47.964;7.982;2023-07-24T07:53:21;9.05;;;5.20;;
47365;SDS011;33105;47.964;7.982;2023-07-24T07:56:23;10.15;;;5.07;;
47365;SDS011;33105;47.964;7.982;2023-07-24T07:59:24;10.10;;;5.47;;
47365;SDS011;33105;47.964;7.982;2023-07-24T08:02:25;20.80;;;7.30;;
47365;SDS011;33105;47.964;7.982;2023-07-24T08:05:27;24.65;;;9.00;;
47365;SDS011;33105;47.964;7.982;2023-07-24T08:08:29;23.15;;;8.50;;
47365;SDS011;33105;47.964;7.982;2023-07-24T08:11:30;18.40;;;7.65;;
47365;SDS011;33105;47.964;7.982;2023-07-24T08:14:31;13.18;;;7.15;;
47365;SDS011;33105;47.964;7.982;2023-07-24T08:17:33;18.63;;;6.43;;
47365;SDS011;33105;47.964;7.982;2023-07-24T08:20:37;13.55;;;6.68;;
47365;SDS011;33105;47.964;7.982;2023-07-24T08:23:40;11.30;;;6.13;;
47365;SDS011;33105;47.964;7.982;2023-07-24T08:26:41;9.10;;;6.05;;
47365;SDS011;33105;47.964;7.982;2023-07-24T08:29:43;9.27;;;5.75;;
47365;SDS011;33105;47.964;7.982;2023-07-24T08:32:44;11.48;;;5.78;;
47365;SDS011;33105;47.964;7.982;2023-07-24T08:35:46;8.85;;;6.40;;
47365;SDS011;33105;47.964;7.982;2023-07-24T08:38:47;14.70;;;6.80;;
47365;SDS011;33105;47.964;7.982;2023-07-24T08:41:48;17.00;;;7.22;;
47365;SDS011;33105;47.964;7.982;2023-07-24T08:44:49;16.00;;;7.03;;
47365;SDS011;33105;47.964;7.982;2023-07-24T08:47:52;18.33;;;7.93;;
47365;SDS011;33105;47.964;7.982;2023-07-24T08:50:54;13.85;;;7.57;;
47365;SDS011;33105;47.964;7.982;2023-07-24T08:53:57;15.23;;;7.88;;
47365;SDS011;33105;47.964;7.982;2023-07-24T08:56:58;17.35;;;8.35;;
47365;SDS011;33105;47.964;7.982;2023-07-24T08:59:59;17.52;;;8.20;;
47365;SDS011;33105;47.964;7.982;2023-07-24T09:03:05;15.00;;;7.72;;
47365;SDS011;33105;47.964;7.982;2023-07-24T09:06:13;14.95;;;8.00;;
47365;SDS011;33105;47.964;7.982;2023-07-24T09:09:15;15.52;;;8.60;;
47365;SDS011;33105;47.964;7.982;2023-07-24T09:12:17;17.65;;;9.07;;
47365;SDS011;33105;47.964;7.982;2023-07-24T09:15:40;13.23;;;7.90;;
47365;SDS011;33105;47.964;7.982;2023-07-24T09:18:44;14.95;;;9.25;;
47365;SDS011;33105;47.964;7.982;2023-07-24T09:21:45;18.50;;;9.63;;
47365;SDS011;33105;47.964;7.982;2023-07-24T09:24:50;12.95;;;8.13;;
47365;SDS011;33105;47.964;7.982;2023-07-24T09:28:08;21.63;;;10.40;;
47365;SDS011;33105;47.964;7.982;2023-07-24T09:31:22;35.88;;;11.02;;
47365;SDS011;33105;47.964;7.982;2023-07-24T09:35:55;13.93;;;6.65;;
47365;SDS011;33105;47.964;7.982;2023-07-24T09:40:18;7.05;;;3.92;;
47365;SDS011;33105;47.964;7.982;2023-07-24T09:44:06;5.40;;;2.55;;
47365;SDS011;33105;47.964;7.982;2023-07-24T09:51:06;8.77;;;5.05;;
47365;SDS011;33105;47.964;7.982;2023-07-24T09:54:15;10.27;;;5.03;;
47365;SDS011;33105;47.964;7.982;2023-07-24T09:57:19;9.73;;;5.60;;
47365;SDS011;33105;47.964;7.982;2023-07-24T10:03:39;8.15;;;4.95;;
47365;SDS011;33105;47.964;7.982;2023-07-24T10:06:46;6.82;;;4.50;;
47365;SDS011;33105;47.964;7.982;2023-07-24T10:09:52;8.48;;;4.32;;
47365;SDS011;33105;47.964;7.982;2023-07-24T10:13:00;7.82;;;4.20;;
47365;SDS011;33105;47.964;7.982;2023-07-24T10:16:12;6.20;;;3.97;;
47365;SDS011;33105;47.964;7.982;2023-07-24T10:19:16;4.25;;;2.80;;
47365;SDS011;33105;47.964;7.982;2023-07-24T10:22:18;7.60;;;3.47;;
47365;SDS011;33105;47.964;7.982;2023-07-24T10:25:28;8.35;;;3.85;;
47365;SDS011;33105;47.964;7.982;2023-07-24T10:29:11;6.03;;;2.80;;
47365;SDS011;33105;47.964;7.982;2023-07-24T10:32:16;5.22;;;2.42;;
47365;SDS011;33105;47.964;7.982;2023-07-24T10:35:36;5.65;;;2.90;;
47365;SDS011;33105;47.964;7.982;2023-07-24T10:38:57;11.43;;;3.38;;
47365;SDS011;33105;47.964;7.982;2023-07-24T10:42:13;5.35;;;2.90;;
47365;SDS011;33105;47.964;7.982;2023-07-24T10:45:17;7.88;;;3.50;;
47365;SDS011;33105;47.964;7.982;2023-07-24T10:48:20;6.80;;;4.30;;
47365;SDS011;33105;47.964;7.982;2023-07-24T10:51:22;5.82;;;3.88;;
47365;SDS011;33105;47.964;7.982;2023-07-24T10:54:23;5.78;;;3.58;;
47365;SDS011;33105;47.964;7.982;2023-07-24T10:57:26;4.60;;;3.05;;
47365;SDS011;33105;47.964;7.982;2023-07-24T11:00:28;9.00;;;3.35;;
47365;SDS011;33105;47.964;7.982;2023-07-24T11:03:29;4.97;;;3.78;;
47365;SDS011;33105;47.964;7.982;2023-07-24T11:06:33;6.57;;;3.70;;
47365;SDS011;33105;47.964;7.982;2023-07-24T11:09:36;6.35;;;3.72;;
47365;SDS011;33105;47.964;7.982;2023-07-24T11:12:39;6.72;;;3.92;;
47365;SDS011;33105;47.964;7.982;2023-07-24T11:15:45;5.55;;;3.45;;
47365;SDS011;33105;47.964;7.982;2023-07-24T11:18:50;5.07;;;3.55;;
47365;SDS011;33105;47.964;7.982;2023-07-24T11:21:55;4.07;;;3.60;;
47365;SDS011;33105;47.964;7.982;2023-07-24T11:24:59;7.40;;;4.00;;
47365;SDS011;33105;47.964;7.982;2023-07-24T11:28:05;8.02;;;4.50;;
47365;SDS011;33105;47.964;7.982;2023-07-24T11:31:06;5.10;;;3.05;;
47365;SDS011;33105;47.964;7.982;2023-07-24T11:34:08;5.03;;;3.10;;
47365;SDS011;33105;47.964;7.982;2023-07-24T11:37:09;2.67;;;2.22;;
47365;SDS011;33105;47.964;7.982;2023-07-24T11:40:11;4.18;;;2.47;;
47365;SDS011;33105;47.964;7.982;2023-07-24T11:43:22;3.15;;;2.50;;
47365;SDS011;33105;47.964;7.982;2023-07-24T11:46:31;3.00;;;2.50;;
47365;SDS011;33105;47.964;7.982;2023-07-24T11:49:59;3.67;;;2.80;;
47365;SDS011;33105;47.964;7.982;2023-07-24T11:53:01;3.15;;;2.50;;
47365;SDS011;33105;47.964;7.982;2023-07-24T11:56:13;3.22;;;2.40;;
47365;SDS011;33105;47.964;7.982;2023-07-24T11:59:21;4.05;;;3.00;;
47365;SDS011;33105;47.964;7.982;2023-07-24T12:02:26;3.80;;;2.80;;
47365;SDS011;33105;47.964;7.982;2023-07-24T12:05:28;3.80;;;2.78;;
47365;SDS011;33105;47.964;7.982;2023-07-24T12:08:30;3.72;;;2.70;;
47365;SDS011;33105;47.964;7.982;2023-07-24T12:11:38;3.90;;;2.70;;
47365;SDS011;33105;47.964;7.982;2023-07-24T12:14:46;3.92;;;2.50;;
47365;SDS011;33105;47.964;7.982;2023-07-24T12:17:56;2.80;;;2.20;;
47365;SDS011;33105;47.964;7.982;2023-07-24T12:21:10;2.95;;;2.30;;
47365;SDS011;33105;47.964;7.982;2023-07-24T12:24:17;2.47;;;2.13;;
47365;SDS011;33105;47.964;7.982;2023-07-24T12:27:31;3.80;;;2.70;;
47365;SDS011;33105;47.964;7.982;2023-07-24T12:30:38;6.97;;;2.75;;
47365;SDS011;33105;47.964;7.982;2023-07-24T12:33:46;4.22;;;3.42;;
47365;SDS011;33105;47.964;7.982;2023-07-24T12:36:56;4.53;;;3.30;;
47365;SDS011;33105;47.964;7.982;2023-07-24T12:40:30;5.43;;;3.53;;
47365;SDS011;33105;47.964;7.982;2023-07-24T12:47:46;8.73;;;4.53;;
47365;SDS011;33105;47.964;7.982;2023-07-24T12:50:50;8.50;;;4.32;;
47365;SDS011;33105;47.964;7.982;2023-07-24T12:54:06;6.97;;;4.55;;
47365;SDS011;33105;47.964;7.982;2023-07-24T12:57:27;7.97;;;4.30;;
47365;SDS011;33105;47.964;7.982;2023-07-24T13:00:37;5.55;;;4.35;;
47365;SDS011;33105;47.964;7.982;2023-07-24T13:03:59;6.43;;;4.50;;
47365;SDS011;33105;47.964;7.982;2023-07-24T13:08:08;8.02;;;4.25;;
47365;SDS011;33105;47.964;7.982;2023-07-24T13:12:08;6.03;;;4.07;;
47365;SDS011;33105;47.964;7.982;2023-07-24T13:15:49;7.07;;;4.15;;
47365;SDS011;33105;47.964;7.982;2023-07-24T13:19:29;9.38;;;4.97;;
47365;SDS011;33105;47.964;7.982;2023-07-24T13:22:31;12.98;;;6.00;;
47365;SDS011;33105;47.964;7.982;2023-07-24T13:25:35;7.32;;;5.22;;
47365;SDS011;33105;47.964;7.982;2023-07-24T13:28:40;8.45;;;4.85;;
47365;SDS011;33105;47.964;7.982;2023-07-24T13:31:59;13.68;;;6.20;;
47365;SDS011;33105;47.964;7.982;2023-07-24T13:35:45;15.43;;;7.18;;
47365;SDS011;33105;47.964;7.982;2023-07-24T13:38:53;11.83;;;7.50;;
47365;SDS011;33105;47.964;7.982;2023-07-24T13:41:55;9.50;;;6.20;;
47365;SDS011;33105;47.964;7.982;2023-07-24T13:45:17;7.47;;;5.25;;
47365;SDS011;33105;47.964;7.982;2023-07-24T13:48:39;12.10;;;5.82;;
47365;SDS011;33105;47.964;7.982;2023-07-24T13:51:41;9.63;;;6.05;;
47365;SDS011;33105;47.964;7.982;2023-07-24T13:54:43;7.60;;;5.57;;
47365;SDS011;33105;47.964;7.982;2023-07-24T13:57:56;9.27;;;5.78;;
47365;SDS011;33105;47.964;7.982;2023-07-24T14:00:58;13.43;;;8.35;;
47365;SDS011;33105;47.964;7.982;2023-07-24T14:03:59;17.95;;;9.38;;
47365;SDS011;33105;47.964;7.982;2023-07-24T14:07:10;14.90;;;7.75;;
47365;SDS011;33105;47.964;7.982;2023-07-24T14:10:14;11.30;;;7.65;;
47365;SDS011;33105;47.964;7.982;2023-07-24T14:13:15;9.00;;;7.05;;
47365;SDS011;33105;47.964;7.982;2023-07-24T14:16:16;10.77;;;6.80;;
47365;SDS011;33105;47.964;7.982;2023-07-24T14:19:24;10.80;;;7.40;;
47365;SDS011;33105;47.964;7.982;2023-07-24T14:22:27;9.43;;;7.00;;
47365;SDS011;33105;47.964;7.982;2023-07-24T14:25:28;13.32;;;7.15;;
47365;SDS011;33105;47.964;7.982;2023-07-24T14:28:29;11.18;;;6.88;;
47365;SDS011;33105;47.964;7.982;2023-07-24T14:31:31;10.48;;;6.70;;
47365;SDS011;33105;47.964;7.982;2023-07-24T14:34:36;9.10;;;6.68;;
47365;SDS011;33105;47.964;7.982;2023-07-24T14:37:48;10.23;;;7.00;;
47365;SDS011;33105;47.964;7.982;2023-07-24T14:41:02;9.25;;;7.00;;
47365;SDS011;33105;47.964;7.982;2023-07-24T14:44:03;9.20;;;7.25;;
47365;SDS011;33105;47.964;7.982;2023-07-24T14:47:05;10.35;;;7.50;;
47365;SDS011;33105;47.964;7.982;2023-07-24T14:50:08;10.32;;;7.18;;
47365;SDS011;33105;47.964;7.982;2023-07-24T14:53:09;10.50;;;7.40;;
47365;SDS011;33105;47.964;7.982;2023-07-24T14:56:11;10.07;;;7.50;;
47365;SDS011;33105;47.964;7.982;2023-07-24T14:59:12;10.13;;;7.28;;
47365;SDS011;33105;47.964;7.982;2023-07-24T15:02:18;9.13;;;7.40;;
47365;SDS011;33105;47.964;7.982;2023-07-24T15:05:19;9.27;;;6.90;;
47365;SDS011;33105;47.964;7.982;2023-07-24T15:08:23;10.15;;;7.25;;
47365;SDS011;33105;47.964;7.982;2023-07-24T15:11:25;10.02;;;6.72;;
47365;SDS011;33105;47.964;7.982;2023-07-24T15:14:26;9.10;;;7.03;;
47365;SDS011;33105;47.964;7.982;2023-07-24T15:17:27;12.13;;;6.93;;
47365;SDS011;33105;47.964;7.982;2023-07-24T15:20:29;10.98;;;6.65;;
47365;SDS011;33105;47.964;7.982;2023-07-24T15:23:36;11.20;;;6.68;;
47365;SDS011;33105;47.964;7.982;2023-07-24T15:26:40;11.77;;;6.93;;
47365;SDS011;33105;47.964;7.982;2023-07-24T15:29:41;14.05;;;7.07;;
47365;SDS011;33105;47.964;7.982;2023-07-24T15:32:43;9.98;;;7.10;;
47365;SDS011;33105;47.964;7.982;2023-07-24T15:35:44;7.90;;;6.38;;
47365;SDS011;33105;47.964;7.982;2023-07-24T15:38:45;6.88;;;4.40;;
47365;SDS011;33105;47.964;7.982;2023-07-24T15:41:47;5.43;;;4.40;;
47365;SDS011;33105;47.964;7.982;2023-07-24T15:44:48;6.72;;;4.82;;
47365;SDS011;33105;47.964;7.982;2023-07-24T15:47:50;9.25;;;5.18;;
47365;SDS011;33105;47.964;7.982;2023-07-24T15:50:51;5.57;;;4.50;;
47365;SDS011;33105;47.964;7.982;2023-07-24T15:53:53;5.00;;;4.00;;
47365;SDS011;33105;47.964;7.982;2023-07-24T15:56:54;6.63;;;4.20;;
47365;SDS011;33105;47.964;7.982;2023-07-24T15:59:55;4.78;;;3.70;;
47365;SDS011;33105;47.964;7.982;2023-07-24T16:02:57;5.25;;;3.97;;
47365;SDS011;33105;47.964;7.982;2023-07-24T16:05:59;5.32;;;3.80;;
47365;SDS011;33105;47.964;7.982;2023-07-24T16:09:01;6.60;;;4.15;;
47365;SDS011;33105;47.964;7.982;2023-07-24T16:12:02;5.45;;;4.50;;
47365;SDS011;33105;47.964;7.982;2023-07-24T16:15:04;5.07;;;3.83;;
47365;SDS011;33105;47.964;7.982;2023-07-24T16:18:07;9.15;;;3.80;;
47365;SDS011;33105;47.964;7.982;2023-07-24T16:21:17;6.18;;;3.60;;
47365;SDS011;33105;47.964;7.982;2023-07-24T16:24:19;5.43;;;4.00;;
47365;SDS011;33105;47.964;7.982;2023-07-24T16:27:22;5.00;;;4.13;;
47365;SDS011;33105;47.964;7.982;2023-07-24T16:30:23;4.70;;;3.58;;
47365;SDS011;33105;47.964;7.982;2023-07-24T16:33:24;4.03;;;3.45;;
47365;SDS011;33105;47.964;7.982;2023-07-24T16:36:28;8.07;;;3.97;;
47365;SDS011;33105;47.964;7.982;2023-07-24T16:39:31;8.23;;;4.13;;
47365;SDS011;33105;47.964;7.982;2023-07-24T16:42:32;6.10;;;3.95;;
47365;SDS011;33105;47.964;7.982;2023-07-24T16:45:34;5.05;;;3.92;;
47365;SDS011;33105;47.964;7.982;2023-07-24T16:48:35;5.13;;;3.47;;
47365;SDS011;33105;47.964;7.982;2023-07-24T16:51:37;5.10;;;3.72;;
47365;SDS011;33105;47.964;7.982;2023-07-24T16:54:39;4.85;;;3.53;;
47365;SDS011;33105;47.964;7.982;2023-07-24T16:57:40;3.60;;;3.30;;
47365;SDS011;33105;47.964;7.982;2023-07-24T17:00:41;5.53;;;3.38;;
47365;SDS011;33105;47.964;7.982;2023-07-24T17:03:43;9.85;;;4.40;;
47365;SDS011;33105;47.964;7.982;2023-07-24T17:06:44;4.63;;;3.45;;
47365;SDS011;33105;47.964;7.982;2023-07-24T17:09:46;5.22;;;3.92;;
47365;SDS011;33105;47.964;7.982;2023-07-24T17:12:48;6.50;;;3.58;;
47365;SDS011;33105;47.964;7.982;2023-07-24T17:15:50;4.35;;;3.22;;
47365;SDS011;33105;47.964;7.982;2023-07-24T17:18:51;4.32;;;3.38;;
47365;SDS011;33105;47.964;7.982;2023-07-24T17:21:56;4.57;;;3.40;;
47365;SDS011;33105;47.964;7.982;2023-07-24T17:24:58;4.63;;;3.60;;
47365;SDS011;33105;47.964;7.982;2023-07-24T17:28:00;4.82;;;3.70;;
47365;SDS011;33105;47.964;7.982;2023-07-24T17:31:18;6.78;;;3.53;;
47365;SDS011;33105;47.964;7.982;2023-07-24T17:34:20;4.85;;;3.50;;
47365;SDS011;33105;47.964;7.982;2023-07-24T17:37:21;9.57;;;3.60;;
47365;SDS011;33105;47.964;7.982;2023-07-24T17:40:23;4.72;;;3.60;;
47365;SDS011;33105;47.964;7.982;2023-07-24T17:43:24;4.57;;;3.80;;
47365;SDS011;33105;47.964;7.982;2023-07-24T17:46:27;4.57;;;3.60;;
47365;SDS011;33105;47.964;7.982;2023-07-24T17:49:38;6.90;;;3.60;;
47365;SDS011;33105;47.964;7.982;2023-07-24T17:52:39;6.22;;;4.35;;
47365;SDS011;33105;47.964;7.982;2023-07-24T17:55:40;7.05;;;4.65;;
47365;SDS011;33105;47.964;7.982;2023-07-24T17:58:49;5.03;;;4.10;;
47365;SDS011;33105;47.964;7.982;2023-07-24T18:01:51;4.95;;;3.88;;
47365;SDS011;33105;47.964;7.982;2023-07-24T18:04:55;5.85;;;4.25;;
47365;SDS011;33105;47.964;7.982;2023-07-24T18:07:57;4.88;;;4.38;;
47365;SDS011;33105;47.964;7.982;2023-07-24T18:10:58;4.95;;;4.30;;
47365;SDS011;33105;47.964;7.982;2023-07-24T18:14:00;9.75;;;4.70;;
47365;SDS011;33105;47.964;7.982;2023-07-24T18:17:01;6.22;;;4.45;;
47365;SDS011;33105;47.964;7.982;2023-07-24T18:20:03;6.68;;;4.85;;
47365;SDS011;33105;47.964;7.982;2023-07-24T18:23:05;6.95;;;4.75;;
47365;SDS011;33105;47.964;7.982;2023-07-24T18:26:06;5.75;;;4.47;;
47365;SDS011;33105;47.964;7.982;2023-07-24T18:29:07;7.88;;;4.55;;
47365;SDS011;33105;47.964;7.982;2023-07-24T18:32:09;7.15;;;4.80;;
47365;SDS011;33105;47.964;7.982;2023-07-24T18:35:10;7.78;;;4.85;;
47365;SDS011;33105;47.964;7.982;2023-07-24T18:38:29;6.20;;;4.65;;
47365;SDS011;33105;47.964;7.982;2023-07-24T18:41:30;6.30;;;4.70;;
47365;SDS011;33105;47.964;7.982;2023-07-24T18:44:36;6.55;;;4.63;;
47365;SDS011;33105;47.964;7.982;2023-07-24T18:47:37;9.48;;;5.10;;
47365;SDS011;33105;47.964;7.982;2023-07-24T18:50:40;7.40;;;4.90;;
47365;SDS011;33105;47.964;7.982;2023-07-24T18:53:41;12.55;;;5.40;;
47365;SDS011;33105;47.964;7.982;2023-07-24T18:56:43;9.75;;;4.72;;
47365;SDS011;33105;47.964;7.982;2023-07-24T18:59:47;8.07;;;4.78;;
47365;SDS011;33105;47.964;7.982;2023-07-24T19:02:48;7.13;;;4.88;;